Time;durP1;ratioP1;P1;durP2;ratioP2;P2;SDS_P1;SDS_P2;PMS_P1;PMS_P2;Temp;Humidity;BMP_temperature;BMP_pressure;BME280_temperature;BME280_humidity;BME280_pressure;Samples;Min_cycle;Max_cycle;Signal;HPM_P1;HPM_P2
2023/05/28 00:01:58;;;;;;;15.10;7.07;;;12.00;99.90;;;;;;6214881;23;20388;-42
2023/05/28 00:04:24;;;;;;;18.98;7.32;;;12.00;99.90;;;;;;6189077;23;20027;-43
2023/05/28 00:06:53;;;;;;;24.35;7.95;;;11.90;99.90;;;;;;6186553;23;20017;-42
2023/05/28 00:09:19;;;;;;;20.48;7.68;;;11.90;99.90;;;;;;6215166;23;20012;-45
2023/05/28 00:11:45;;;;;;;21.90;7.95;;;11.90;99.90;;;;;;6215311;23;20035;-47
2023/05/28 00:14:11;;;;;;;19.15;7.13;;;11.80;99.90;;;;;;6214877;23;20473;-42
2023/05/28 00:16:37;;;;;;;16.85;7.88;;;11.70;99.90;;;;;;6213920;23;20024;-44
2023/05/28 00:19:03;;;;;;;20.17;8.50;;;11.70;99.90;;;;;;6215640;23;20048;-46
2023/05/28 00:21:32;;;;;;;16.58;7.57;;;11.70;99.90;;;;;;6214651;23;20012;-44
2023/05/28 00:23:59;;;;;;;26.33;8.35;;;11.60;99.90;;;;;;6215090;23;20345;-46
2023/05/28 00:26:26;;;;;;;18.63;7.53;;;11.60;99.90;;;;;;6215020;23;20048;-46
2023/05/28 00:28:51;;;;;;;19.17;8.57;;;11.60;99.90;;;;;;6218632;23;20020;-45
2023/05/28 00:31:17;;;;;;;19.63;7.47;;;11.50;99.90;;;;;;6215696;23;20337;-45
2023/05/28 00:33:45;;;;;;;21.70;7.97;;;11.50;99.90;;;;;;6214654;23;20023;-46
2023/05/28 00:36:14;;;;;;;17.13;7.57;;;11.50;99.90;;;;;;6215255;23;20291;-44
2023/05/28 00:38:40;;;;;;;20.33;7.80;;;11.40;99.90;;;;;;6163456;23;20012;-46
2023/05/28 00:41:06;;;;;;;19.10;7.80;;;;;;;;;;6185708;23;20088;-46
2023/05/28 00:43:32;;;;;;;21.27;7.22;;;11.30;99.90;;;;;;6213463;23;20387;-49
2023/05/28 00:46:04;;;;;;;16.05;8.02;;;11.30;99.90;;;;;;6215951;23;20020;-45
2023/05/28 00:48:30;;;;;;;16.23;7.50;;;11.30;99.90;;;;;;6215642;23;20009;-45
2023/05/28 00:51:00;;;;;;;17.50;7.72;;;11.20;99.90;;;;;;6215530;23;20020;-46
2023/05/28 00:53:25;;;;;;;17.92;7.95;;;11.20;99.90;;;;;;6215156;23;20024;-48
2023/05/28 00:55:53;;;;;;;19.05;7.60;;;11.20;99.90;;;;;;6215551;23;20012;-44
2023/05/28 00:58:19;;;;;;;18.05;8.27;;;;;;;;;;6215308;23;20370;-44
2023/05/28 01:00:46;;;;;;;20.58;7.65;;;11.10;99.90;;;;;;6215515;23;20017;-45
2023/05/28 01:03:14;;;;;;;17.98;8.20;;;11.00;99.90;;;;;;6216402;23;20016;-45
2023/05/28 01:05:40;;;;;;;22.85;8.40;;;11.00;99.90;;;;;;6215770;23;20021;-44
2023/05/28 01:08:07;;;;;;;18.42;8.02;;;11.00;99.90;;;;;;6215669;23;20015;-45
2023/05/28 01:10:33;;;;;;;17.02;7.82;;;10.90;99.90;;;;;;6214927;23;20028;-47
2023/05/28 01:13:01;;;;;;;19.50;8.57;;;10.90;99.90;;;;;;6188957;23;20013;-46
2023/05/28 01:15:26;;;;;;;;;;;10.90;99.90;;;;;;6189136;23;20451;-46
2023/05/28 01:17:57;;;;;;;17.25;7.85;;;10.90;99.90;;;;;;6215366;23;19920;-44
2023/05/28 01:20:23;;;;;;;16.17;7.55;;;10.80;99.90;;;;;;6188603;23;20021;-45
2023/05/28 01:22:55;;;;;;;15.80;7.65;;;10.80;99.90;;;;;;6214942;23;20440;-44
2023/05/28 01:25:22;;;;;;;19.60;8.05;;;10.70;99.90;;;;;;6215677;23;20031;-44
2023/05/28 01:27:48;;;;;;;18.13;8.10;;;10.70;99.90;;;;;;6215285;23;20028;-44
2023/05/28 01:30:17;;;;;;;16.17;8.43;;;10.70;99.90;;;;;;6215529;23;20027;-45
2023/05/28 01:32:43;;;;;;;20.65;8.75;;;10.70;99.90;;;;;;6190552;23;20020;-46
2023/05/28 01:35:10;;;;;;;23.67;8.27;;;10.60;99.90;;;;;;6214429;23;20017;-45
2023/05/28 01:37:49;;;;;;;20.80;8.75;;;10.60;99.90;;;;;;6213152;23;20020;-48
2023/05/28 01:40:17;;;;;;;16.92;8.07;;;10.60;99.90;;;;;;6214768;23;20017;-46
2023/05/28 01:42:45;;;;;;;18.23;8.48;;;10.60;99.90;;;;;;6187944;23;20075;-46
2023/05/28 01:45:12;;;;;;;17.88;7.75;;;10.60;99.90;;;;;;6214214;23;20123;-46
2023/05/28 01:47:38;;;;;;;19.90;8.32;;;10.50;99.90;;;;;;6209460;23;20023;-48
2023/05/28 01:50:05;;;;;;;18.00;8.40;;;10.50;99.90;;;;;;6181933;23;20449;-45
2023/05/28 01:52:30;;;;;;;19.25;7.97;;;10.50;99.90;;;;;;6210418;23;20012;-46
2023/05/28 01:54:56;;;;;;;21.90;8.48;;;10.50;99.90;;;;;;6185776;23;20461;-48
2023/05/28 01:57:21;;;;;;;19.00;8.57;;;10.50;99.90;;;;;;6211043;23;20016;-48
2023/05/28 01:59:47;;;;;;;21.05;8.60;;;10.50;99.90;;;;;;6213931;23;20087;-46
2023/05/28 02:02:13;;;;;;;15.05;8.75;;;10.50;99.90;;;;;;6214147;23;20016;-46
2023/05/28 02:04:38;;;;;;;21.33;8.70;;;10.40;99.90;;;;;;6213985;23;20016;-44
2023/05/28 02:07:05;;;;;;;16.23;8.57;;;10.40;99.90;;;;;;6214838;23;20017;-44
2023/05/28 02:09:30;;;;;;;21.38;8.38;;;10.40;99.90;;;;;;6187875;23;20021;-44
2023/05/28 02:11:58;;;;;;;21.70;9.07;;;10.40;99.90;;;;;;6215058;23;20321;-46
2023/05/28 02:14:24;;;;;;;19.27;8.60;;;10.40;99.90;;;;;;6214459;23;20039;-46
2023/05/28 02:16:52;;;;;;;20.48;8.30;;;10.30;99.90;;;;;;6188211;23;20008;-47
2023/05/28 02:19:18;;;;;;;19.20;8.13;;;10.30;99.90;;;;;;6214667;23;20084;-45
2023/05/28 02:21:44;;;;;;;15.02;7.90;;;10.20;99.90;;;;;;6188178;23;20023;-47
2023/05/28 02:24:10;;;;;;;21.60;8.82;;;10.20;99.90;;;;;;6187465;23;20012;-46
2023/05/28 02:26:36;;;;;;;19.83;8.68;;;10.20;99.90;;;;;;6214505;23;20012;-45
2023/05/28 02:29:01;;;;;;;20.58;7.72;;;10.20;99.90;;;;;;6216521;23;20023;-44
2023/05/28 02:31:27;;;;;;;16.80;8.20;;;10.20;99.90;;;;;;6165094;23;20020;-47
2023/05/28 02:33:53;;;;;;;17.90;8.65;;;10.10;99.90;;;;;;6214919;23;20047;-47
2023/05/28 02:36:18;;;;;;;19.63;8.55;;;10.10;99.90;;;;;;6187284;23;20322;-45
2023/05/28 02:38:44;;;;;;;20.33;8.02;;;10.10;99.90;;;;;;6214448;23;20036;-47
2023/05/28 02:41:10;;;;;;;18.75;7.70;;;10.10;99.90;;;;;;6214017;23;20020;-45
2023/05/28 02:43:36;;;;;;;18.70;8.80;;;10.10;99.90;;;;;;6214426;23;20027;-47
2023/05/28 02:46:02;;;;;;;17.10;8.30;;;10.10;99.90;;;;;;6162704;23;20013;-46
2023/05/28 02:48:28;;;;;;;18.02;8.48;;;10.10;99.90;;;;;;6213662;23;20048;-45
2023/05/28 02:50:53;;;;;;;17.33;8.75;;;10.10;99.90;;;;;;6213300;23;20013;-46
2023/05/28 02:53:23;;;;;;;16.10;8.23;;;10.10;99.90;;;;;;6212445;23;20058;-44
2023/05/28 02:55:49;;;;;;;19.02;8.43;;;10.20;99.90;;;;;;6184649;23;20017;-46
2023/05/28 02:58:15;;;;;;;20.77;8.60;;;10.10;99.90;;;;;;6210433;23;20449;-44
2023/05/28 03:00:41;;;;;;;21.08;8.25;;;10.10;99.90;;;;;;6187470;23;20128;-45
2023/05/28 03:03:07;;;;;;;19.25;8.82;;;10.10;99.90;;;;;;6213907;23;20453;-45
2023/05/28 03:05:33;;;;;;;18.05;8.73;;;10.20;99.90;;;;;;6212657;23;20094;-46
2023/05/28 03:07:59;;;;;;;16.85;8.50;;;10.20;99.90;;;;;;6183609;23;20373;-45
2023/05/28 03:10:25;;;;;;;20.55;8.68;;;10.20;99.90;;;;;;6211812;23;20067;-45
2023/05/28 03:12:50;;;;;;;18.45;8.77;;;10.20;99.90;;;;;;6214075;23;20017;-46
2023/05/28 03:15:16;;;;;;;19.75;8.45;;;10.20;99.90;;;;;;6214314;23;20012;-47
2023/05/28 03:17:42;;;;;;;21.27;9.07;;;10.30;99.90;;;;;;6214289;23;20091;-46
2023/05/28 03:20:09;;;;;;;17.75;8.60;;;10.30;99.90;;;;;;6212451;23;20017;-48
2023/05/28 03:22:38;;;;;;;15.65;8.68;;;10.30;99.90;;;;;;6212871;23;20044;-45
2023/05/28 03:25:05;;;;;;;21.60;9.02;;;10.30;99.90;;;;;;6214155;23;20016;-44
2023/05/28 03:27:31;;;;;;;17.75;9.15;;;10.30;99.90;;;;;;6214258;23;20008;-45
2023/05/28 03:29:57;;;;;;;20.58;8.60;;;10.30;99.90;;;;;;6214908;23;20325;-44
2023/05/28 03:32:23;;;;;;;19.58;8.38;;;10.30;99.90;;;;;;6213901;23;20083;-45
2023/05/28 03:34:48;;;;;;;18.27;9.25;;;10.30;99.90;;;;;;6162568;23;20017;-45
2023/05/28 03:37:14;;;;;;;16.63;9.00;;;10.30;99.90;;;;;;6215520;23;20339;-45
2023/05/28 03:39:40;;;;;;;18.58;8.85;;;10.30;99.90;;;;;;6213482;23;20013;-49
2023/05/28 03:42:07;;;;;;;22.35;9.48;;;10.30;99.90;;;;;;6214633;23;20016;-45
2023/05/28 03:44:34;;;;;;;23.23;10.20;;;10.30;99.90;;;;;;6162398;23;20016;-44
2023/05/28 03:47:00;;;;;;;17.90;8.98;;;10.30;99.90;;;;;;6214370;23;20015;-46
2023/05/28 03:49:25;;;;;;;19.70;9.63;;;10.30;99.90;;;;;;6214027;23;20036;-45
2023/05/28 03:51:51;;;;;;;20.33;9.32;;;10.30;99.90;;;;;;6214296;23;20021;-45
2023/05/28 03:54:16;;;;;;;21.33;9.90;;;10.40;99.90;;;;;;6186467;23;20029;-45
2023/05/28 03:56:43;;;;;;;23.63;9.40;;;;;;;;;;6216576;23;20083;-46
2023/05/28 03:59:08;;;;;;;17.23;8.98;;;10.40;99.90;;;;;;6213463;23;20013;-45
2023/05/28 04:01:35;;;;;;;19.80;8.75;;;10.50;99.90;;;;;;6185493;23;20023;-47
2023/05/28 04:04:01;;;;;;;18.63;10.03;;;10.40;99.90;;;;;;6160095;23;20457;-45
2023/05/28 04:06:27;;;;;;;18.02;9.48;;;10.50;99.90;;;;;;6187861;23;20028;-45
2023/05/28 04:08:52;;;;;;;20.77;9.00;;;10.50;99.90;;;;;;6211927;23;20017;-47
2023/05/28 04:11:18;;;;;;;20.23;9.63;;;10.50;99.90;;;;;;6211973;23;20519;-46
2023/05/28 04:13:44;;;;;;;19.05;9.43;;;10.60;99.90;;;;;;6209157;23;20017;-45
2023/05/28 04:16:10;;;;;;;15.60;9.07;;;10.60;99.90;;;;;;6158730;23;20012;-45
2023/05/28 04:18:35;;;;;;;18.38;9.13;;;10.70;99.90;;;;;;6214119;23;20032;-45
2023/05/28 04:21:01;;;;;;;18.05;9.55;;;10.70;99.90;;;;;;6214080;23;20084;-45
2023/05/28 04:23:26;;;;;;;20.80;9.25;;;10.80;99.90;;;;;;6210510;23;20017;-45
2023/05/28 04:25:54;;;;;;;20.45;9.52;;;10.90;99.90;;;;;;6213917;23;20024;-46
2023/05/28 04:28:20;;;;;;;19.13;8.52;;;11.00;99.90;;;;;;6214344;23;20452;-44
2023/05/28 04:30:45;;;;;;;15.85;8.85;;;11.20;99.90;;;;;;6189088;23;20017;-46
2023/05/28 04:33:11;;;;;;;18.38;8.70;;;11.30;99.90;;;;;;6215692;23;20017;-44
2023/05/28 04:35:37;;;;;;;19.90;8.60;;;12.10;99.90;;;;;;6215787;23;20012;-45
2023/05/28 04:38:02;;;;;;;19.25;9.00;;;12.60;99.90;;;;;;6215181;23;20035;-46
2023/05/28 04:40:28;;;;;;;18.77;8.25;;;13.10;99.90;;;;;;6188704;23;20055;-47
2023/05/28 04:42:55;;;;;;;20.50;9.10;;;13.60;99.90;;;;;;6187355;23;20013;-47
2023/05/28 04:45:21;;;;;;;19.38;8.57;;;14.00;99.90;;;;;;6186451;23;20020;-45
2023/05/28 04:47:48;;;;;;;20.13;8.40;;;13.90;99.90;;;;;;6213480;23;20073;-47
2023/05/28 04:50:14;;;;;;;17.67;8.07;;;13.70;99.90;;;;;;6188650;23;20021;-46
2023/05/28 04:52:39;;;;;;;16.13;7.63;;;13.30;99.90;;;;;;6215768;23;20456;-45
2023/05/28 04:55:05;;;;;;;20.10;8.30;;;13.00;99.90;;;;;;6188604;23;20108;-45
2023/05/28 04:57:32;;;;;;;17.33;8.13;;;12.70;99.90;;;;;;6214833;23;20541;-45
2023/05/28 04:59:58;;;;;;;16.67;7.97;;;12.40;99.90;;;;;;6215686;23;20020;-45
2023/05/28 05:02:23;;;;;;;18.13;8.48;;;12.30;99.90;;;;;;6215178;23;20013;-44
2023/05/28 05:04:49;;;;;;;15.70;7.95;;;12.20;99.90;;;;;;6188316;23;20021;-45
2023/05/28 05:07:16;;;;;;;18.40;7.85;;;12.10;99.90;;;;;;6215544;23;20017;-46
2023/05/28 05:09:42;;;;;;;17.80;8.68;;;12.10;99.90;;;;;;6214409;23;20032;-45
2023/05/28 05:12:08;;;;;;;18.63;8.32;;;12.10;99.90;;;;;;6185809;23;20016;-44
2023/05/28 05:14:35;;;;;;;19.05;8.90;;;12.10;99.90;;;;;;6214175;23;20099;-45
2023/05/28 05:17:02;;;;;;;17.30;7.65;;;12.20;99.90;;;;;;6215343;23;20021;-45
2023/05/28 05:19:28;;;;;;;14.02;8.23;;;12.20;99.90;;;;;;6213311;23;20028;-45
2023/05/28 05:21:53;;;;;;;17.98;8.43;;;12.30;99.90;;;;;;6213593;23;20023;-44
2023/05/28 05:24:19;;;;;;;17.00;8.23;;;12.40;99.90;;;;;;6215872;23;20075;-47
2023/05/28 05:26:44;;;;;;;15.90;7.90;;;12.50;99.90;;;;;;6215553;23;20064;-48
2023/05/28 05:29:10;;;;;;;19.45;8.88;;;12.70;99.90;;;;;;6215173;23;20019;-47
2023/05/28 05:31:35;;;;;;;16.70;7.78;;;13.00;99.90;;;;;;6215513;23;20131;-46
2023/05/28 05:34:01;;;;;;;19.20;8.73;;;13.00;99.90;;;;;;6215167;23;20360;-48
2023/05/28 05:36:27;;;;;;;15.52;8.05;;;13.10;99.90;;;;;;6214854;23;20019;-48
2023/05/28 05:38:52;;;;;;;18.25;8.18;;;14.90;99.90;;;;;;6215049;23;20017;-47
2023/05/28 05:41:18;;;;;;;16.52;7.45;;;15.00;99.90;;;;;;6214499;23;20075;-46
2023/05/28 05:43:44;;;;;;;14.25;7.25;;;15.60;99.90;;;;;;6188937;23;20012;-43
2023/05/28 05:46:09;;;;;;;17.30;7.88;;;16.20;99.90;;;;;;6215225;23;20090;-44
2023/05/28 05:48:35;;;;;;;20.50;7.63;;;16.70;99.90;;;;;;6214612;23;20016;-43
2023/05/28 05:51:02;;;;;;;17.98;7.85;;;17.40;99.90;;;;;;6215628;23;20012;-42
2023/05/28 05:53:28;;;;;;;15.63;6.97;;;16.80;99.90;;;;;;6215824;23;20026;-42
2023/05/28 05:55:54;;;;;;;12.18;7.05;;;16.70;99.90;;;;;;6215016;23;20406;-45
2023/05/28 05:58:20;;;;;;;20.35;7.38;;;17.40;99.90;;;;;;6214615;23;20017;-44
2023/05/28 06:00:47;;;;;;;16.35;7.70;;;17.20;99.90;;;;;;6188065;23;20020;-42
2023/05/28 06:03:14;;;;;;;15.90;7.07;;;17.10;99.90;;;;;;6214852;23;20016;-43
2023/05/28 06:05:40;;;;;;;13.73;6.90;;;17.20;99.90;;;;;;6188165;23;20067;-44
2023/05/28 06:08:05;;;;;;;15.60;7.45;;;17.10;99.90;;;;;;6214537;23;20515;-43
2023/05/28 06:10:31;;;;;;;15.07;7.30;;;17.10;99.90;;;;;;6214777;23;20062;-43
2023/05/28 06:13:00;;;;;;;15.00;7.00;;;17.10;99.90;;;;;;6214159;23;20019;-44
2023/05/28 06:15:27;;;;;;;17.00;8.05;;;17.10;99.90;;;;;;6212910;23;20020;-43
2023/05/28 06:17:52;;;;;;;12.52;5.93;;;17.20;99.90;;;;;;6214357;23;20023;-44
2023/05/28 06:20:19;;;;;;;16.73;7.22;;;16.90;99.90;;;;;;6214921;23;20108;-44
2023/05/28 06:22:45;;;;;;;14.45;7.05;;;16.70;99.90;;;;;;6214874;23;20344;-43
2023/05/28 06:25:11;;;;;;;14.55;7.07;;;17.10;99.90;;;;;;6214918;23;20023;-43
2023/05/28 06:27:37;;;;;;;14.65;7.38;;;17.20;99.90;;;;;;6210363;23;20009;-45
2023/05/28 06:30:04;;;;;;;14.70;6.95;;;17.10;99.90;;;;;;6183615;23;20488;-43
2023/05/28 06:32:30;;;;;;;13.77;6.78;;;17.10;99.90;;;;;;6212985;23;20016;-45
2023/05/28 06:34:56;;;;;;;13.57;7.30;;;17.20;99.90;;;;;;6212696;23;20020;-43
2023/05/28 06:37:22;;;;;;;13.05;6.88;;;17.60;99.90;;;;;;6211554;23;20024;-46
2023/05/28 06:39:47;;;;;;;10.73;6.47;;;18.10;99.90;;;;;;6210427;23;20020;-44
2023/05/28 06:42:13;;;;;;;10.63;6.47;;;18.50;99.90;;;;;;6215916;23;20023;-44
2023/05/28 06:44:38;;;;;;;17.80;6.38;;;18.40;99.90;;;;;;6212088;23;20087;-45
2023/05/28 06:47:04;;;;;;;12.02;5.53;;;18.50;99.90;;;;;;6189938;23;20017;-43
2023/05/28 06:49:30;;;;;;;11.40;6.00;;;18.70;99.90;;;;;;6213147;23;20016;-44
2023/05/28 06:51:55;;;;;;;10.07;5.20;;;18.90;99.90;;;;;;6212088;23;20021;-45
2023/05/28 06:54:21;;;;;;;22.00;6.18;;;18.90;99.90;;;;;;6184411;23;20017;-45
2023/05/28 06:56:47;;;;;;;12.63;6.57;;;19.00;99.90;;;;;;6211528;23;20012;-46
2023/05/28 06:59:12;;;;;;;13.93;5.97;;;19.20;99.90;;;;;;6212685;23;20013;-43
2023/05/28 07:01:38;;;;;;;13.70;6.03;;;19.20;99.90;;;;;;6211819;23;20012;-43
2023/05/28 07:04:03;;;;;;;11.15;6.18;;;19.30;99.90;;;;;;6210735;23;20071;-44
2023/05/28 07:06:30;;;;;;;13.43;6.10;;;19.20;99.90;;;;;;6211610;23;20013;-44
2023/05/28 07:08:55;;;;;;;11.80;6.00;;;19.20;99.90;;;;;;6209489;23;20070;-45
2023/05/28 07:11:21;;;;;;;14.15;6.82;;;19.00;99.90;;;;;;6209461;23;20016;-45
2023/05/28 07:13:47;;;;;;;13.02;6.38;;;19.30;99.90;;;;;;6209090;23;20075;-44
2023/05/28 07:16:13;;;;;;;13.20;6.05;;;19.40;99.90;;;;;;6207239;23;20388;-45
2023/05/28 07:18:40;;;;;;;11.57;5.78;;;19.40;99.90;;;;;;6181666;23;20015;-44
2023/05/28 07:21:05;;;;;;;10.30;5.15;;;19.80;99.90;;;;;;6207511;23;20013;-44
2023/05/28 07:23:31;;;;;;;13.27;5.45;;;20.00;99.90;;;;;;6208192;23;20382;-44
2023/05/28 07:25:57;;;;;;;10.05;5.32;;;20.00;99.90;;;;;;6208487;23;20021;-46
2023/05/28 07:28:22;;;;;;;10.70;5.60;;;19.90;99.90;;;;;;6209950;23;20012;-46
2023/05/28 07:30:48;;;;;;;12.43;5.60;;;19.80;99.90;;;;;;6208906;23;20038;-44
2023/05/28 07:33:14;;;;;;;11.35;5.30;;;19.90;99.90;;;;;;6209968;23;20016;-45
2023/05/28 07:35:39;;;;;;;12.00;5.85;;;20.00;99.90;;;;;;6209754;23;20150;-45
2023/05/28 07:38:05;;;;;;;10.63;5.38;;;20.00;99.90;;;;;;6212303;23;20352;-46
2023/05/28 07:40:30;;;;;;;10.93;5.15;;;19.60;99.90;;;;;;6212521;23;20064;-49
2023/05/28 07:42:56;;;;;;;12.95;5.15;;;19.20;99.90;;;;;;6186573;23;20457;-43
2023/05/28 07:45:22;;;;;;;11.20;5.25;;;19.20;99.90;;;;;;6185251;23;20013;-46
2023/05/28 07:47:47;;;;;;;11.30;5.15;;;19.00;99.90;;;;;;6210863;23;20071;-47
2023/05/28 07:50:13;;;;;;;9.18;4.75;;;18.70;99.90;;;;;;6211552;23;20013;-47
2023/05/28 07:52:40;;;;;;;10.40;5.43;;;18.60;99.90;;;;;;6210764;23;20012;-45
2023/05/28 07:55:07;;;;;;;10.55;5.28;;;18.50;99.90;;;;;;6185124;23;20017;-44
2023/05/28 07:57:33;;;;;;;13.30;5.60;;;18.50;99.90;;;;;;6213573;23;20019;-45
2023/05/28 08:00:00;;;;;;;10.45;5.25;;;18.50;99.90;;;;;;6213844;23;20017;-45
2023/05/28 08:02:26;;;;;;;11.75;5.72;;;18.50;99.90;;;;;;6214131;23;20087;-43
2023/05/28 08:04:53;;;;;;;11.05;4.82;;;18.70;99.90;;;;;;6189246;23;20020;-44
2023/05/28 08:07:19;;;;;;;13.13;5.70;;;18.80;99.90;;;;;;6217982;23;20430;-43
2023/05/28 08:09:45;;;;;;;12.85;5.93;;;19.20;99.90;;;;;;6217111;23;20016;-45
2023/05/28 08:12:10;;;;;;;10.77;4.53;;;19.00;99.90;;;;;;6216261;23;20012;-47
2023/05/28 08:14:36;;;;;;;13.30;4.60;;;18.90;99.90;;;;;;6216268;23;20013;-45
2023/05/28 08:17:02;;;;;;;12.35;5.10;;;19.10;99.90;;;;;;6164157;23;20020;-44
2023/05/28 08:19:28;;;;;;;10.07;5.10;;;19.40;99.90;;;;;;6215396;23;20318;-44
2023/05/28 08:21:53;;;;;;;14.95;5.38;;;19.20;99.90;;;;;;6215698;23;20122;-44
2023/05/28 08:24:20;;;;;;;12.40;5.25;;;19.30;99.90;;;;;;6215535;23;20016;-45
2023/05/28 08:26:46;;;;;;;9.80;4.80;;;19.50;99.90;;;;;;6216116;23;20016;-45
2023/05/28 08:29:12;;;;;;;10.68;5.43;;;19.60;99.90;;;;;;6215083;23;20035;-43
2023/05/28 08:31:37;;;;;;;11.30;5.20;;;19.90;99.90;;;;;;6215828;23;20084;-45
2023/05/28 08:34:03;;;;;;;13.00;5.10;;;19.90;99.90;;;;;;6215648;23;20329;-44
2023/05/28 08:36:29;;;;;;;11.40;4.38;;;19.80;99.90;;;;;;6215363;23;20017;-45
2023/05/28 08:38:55;;;;;;;11.13;5.00;;;20.00;99.90;;;;;;6215018;23;20008;-45
2023/05/28 08:41:21;;;;;;;13.40;4.97;;;19.90;99.90;;;;;;6217976;23;20044;-44
2023/05/28 08:43:47;;;;;;;11.68;5.22;;;19.80;99.90;;;;;;6217884;23;20341;-45
2023/05/28 08:46:14;;;;;;;12.30;5.03;;;19.80;99.90;;;;;;6215378;23;20016;-44
2023/05/28 08:48:42;;;;;;;14.40;5.30;;;19.90;99.90;;;;;;6215147;23;20016;-43
2023/05/28 08:51:08;;;;;;;12.98;5.20;;;19.70;99.90;;;;;;6163573;23;20040;-47
2023/05/28 08:53:40;;;;;;;14.05;5.80;;;20.00;99.90;;;;;;6214703;23;20087;-44
2023/05/28 08:56:08;;;;;;;9.63;5.25;;;20.10;99.90;;;;;;6214900;23;20040;-46
2023/05/28 08:58:36;;;;;;;10.32;4.97;;;20.00;99.90;;;;;;6187385;23;20023;-45
2023/05/28 09:01:06;;;;;;;11.52;4.93;;;20.10;99.90;;;;;;6188424;23;20155;-45
2023/05/28 09:03:33;;;;;;;12.05;5.22;;;20.30;99.90;;;;;;6215189;23;20008;-45
2023/05/28 09:05:58;;;;;;;8.80;5.20;;;20.30;99.90;;;;;;6188676;23;20020;-45
2023/05/28 09:08:24;;;;;;;13.18;5.35;;;20.50;99.90;;;;;;6215497;23;20016;-44
2023/05/28 09:10:50;;;;;;;11.20;5.13;;;20.70;99.90;;;;;;6215300;23;20027;-45
2023/05/28 09:13:20;;;;;;;15.30;5.63;;;20.80;99.90;;;;;;6215393;23;20131;-44
2023/05/28 09:15:53;;;;;;;13.82;5.63;;;20.80;99.90;;;;;;6215395;23;20016;-46
2023/05/28 09:18:21;;;;;;;11.20;5.40;;;20.80;99.90;;;;;;6215429;23;20028;-44
2023/05/28 09:20:51;;;;;;;13.02;5.95;;;20.70;99.90;;;;;;6215346;23;20013;-44
2023/05/28 09:23:18;;;;;;;12.23;5.15;;;20.70;99.90;;;;;;6215181;23;20013;-45
2023/05/28 09:25:44;;;;;;;12.77;5.82;;;20.80;99.90;;;;;;6215399;23;20016;-45
2023/05/28 09:28:14;;;;;;;14.82;5.60;;;20.80;99.90;;;;;;6214811;23;20016;-44
2023/05/28 09:30:41;;;;;;;14.20;5.50;;;20.90;99.90;;;;;;6190582;23;20020;-45
2023/05/28 09:33:07;;;;;;;10.38;5.45;;;21.00;99.90;;;;;;6215906;23;20453;-44
2023/05/28 09:35:34;;;;;;;12.03;4.97;;;21.00;99.90;;;;;;6214868;23;20019;-46
2023/05/28 09:38:00;;;;;;;11.20;5.28;;;21.00;99.90;;;;;;6214647;23;20246;-46
2023/05/28 09:40:27;;;;;;;11.93;5.20;;;;;;;;;;6165476;23;20024;-45
2023/05/28 09:42:53;;;;;;;13.65;5.38;;;21.20;99.90;;;;;;6217329;23;20020;-44
2023/05/28 09:45:25;;;;;;;10.50;5.30;;;21.20;99.90;;;;;;6188719;23;20021;-44
2023/05/28 09:47:51;;;;;;;10.65;4.68;;;21.10;99.90;;;;;;6215123;23;20243;-45
2023/05/28 09:50:17;;;;;;;8.98;4.80;;;21.50;99.90;;;;;;6188231;23;20012;-45
2023/05/28 09:52:44;;;;;;;10.23;4.68;;;21.60;99.90;;;;;;6214826;23;20012;-46
2023/05/28 09:55:15;;;;;;;9.38;4.65;;;21.70;99.90;;;;;;6215173;23;20020;-46
2023/05/28 09:57:55;;;;;;;11.00;4.47;;;21.80;99.90;;;;;;6214697;23;20048;-45
2023/05/28 10:00:28;;;;;;;10.93;5.13;;;21.30;99.90;;;;;;6214946;23;20019;-49
2023/05/28 10:03:18;;;;;;;12.32;5.28;;;21.70;99.90;;;;;;6214007;23;20019;-46
2023/05/28 10:05:51;;;;;;;10.85;5.68;;;21.60;99.90;;;;;;6214686;23;20013;-46
2023/05/28 10:08:18;;;;;;;9.50;5.15;;;21.60;99.90;;;;;;6187666;23;20019;-46
2023/05/28 10:10:49;;;;;;;11.32;5.15;;;21.50;99.90;;;;;;6214926;23;20023;-46
2023/05/28 10:13:15;;;;;;;9.23;4.65;;;21.50;99.90;;;;;;6214881;23;20039;-46
2023/05/28 10:15:41;;;;;;;12.05;5.43;;;21.40;99.90;;;;;;6187940;23;20015;-44
2023/05/28 10:18:08;;;;;;;7.95;4.28;;;21.70;99.90;;;;;;6215113;23;20013;-46
2023/05/28 10:20:34;;;;;;;12.68;5.80;;;21.40;99.90;;;;;;6214628;23;20024;-45
2023/05/28 10:23:00;;;;;;;9.05;5.05;;;21.50;99.90;;;;;;6214864;23;20013;-47
2023/05/28 10:25:26;;;;;;;12.07;5.82;;;21.80;99.90;;;;;;6214629;23;20322;-45
2023/05/28 10:27:57;;;;;;;11.20;4.72;;;;;;;;;;6214641;23;20063;-47
2023/05/28 10:30:36;;;;;;;9.52;5.22;;;21.70;99.90;;;;;;6214571;23;20027;-45
2023/05/28 10:33:04;;;;;;;10.48;5.47;;;;;;;;;;6214526;23;20102;-46
2023/05/28 10:35:31;;;;;;;9.75;5.13;;;;;;;;;;6214589;23;20048;-44
2023/05/28 10:38:07;;;;;;;9.07;5.57;;;;;;;;;;6187707;23;20048;-45
2023/05/28 10:40:34;;;;;;;10.77;5.47;;;;;;;;;;6214794;23;20016;-45
2023/05/28 10:43:00;;;;;;;10.27;5.22;;;;;;;;;;6214935;23;20022;-44
2023/05/28 10:45:36;;;;;;;11.40;5.15;;;;;;;;;;6187964;23;20385;-45
2023/05/28 10:48:02;;;;;;;10.57;5.47;;;22.10;99.90;;;;;;6187034;23;20016;-45
2023/05/28 10:50:28;;;;;;;10.40;4.80;;;22.30;99.90;;;;;;6215066;23;20140;-45
2023/05/28 10:53:04;;;;;;;9.18;5.28;;;22.10;99.90;;;;;;6187868;23;20463;-48
2023/05/28 10:55:49;;;;;;;11.15;5.20;;;22.20;99.90;;;;;;6213613;23;20023;-50
2023/05/28 10:58:34;;;;;;;11.10;5.68;;;;;;;;;;6213871;23;20020;-44
2023/05/28 11:01:04;;;;;;;10.85;5.25;;;;;;;;;;6213758;23;20027;-45
2023/05/28 11:03:40;;;;;;;9.80;5.32;;;22.40;99.90;;;;;;6214063;23;20017;-47
2023/05/28 11:06:07;;;;;;;9.50;4.93;;;22.40;99.90;;;;;;6213786;23;20344;-45
2023/05/28 11:08:41;;;;;;;11.40;5.38;;;22.20;99.90;;;;;;6213614;23;20012;-46
2023/05/28 11:11:07;;;;;;;10.27;6.10;;;22.30;99.90;;;;;;6213760;23;20019;-47
2023/05/28 11:13:33;;;;;;;9.25;5.10;;;22.60;99.90;;;;;;6213314;23;20009;-48
2023/05/28 11:16:13;;;;;;;10.52;4.72;;;22.50;99.90;;;;;;6213427;23;20016;-45
2023/05/28 11:18:38;;;;;;;10.45;4.97;;;22.40;99.90;;;;;;6213953;23;20341;-45
2023/05/28 11:21:11;;;;;;;10.38;5.47;;;22.60;99.90;;;;;;6213718;23;20066;-46
2023/05/28 11:23:37;;;;;;;12.82;5.43;;;22.40;99.90;;;;;;6214169;23;20105;-46
2023/05/28 11:26:20;;;;;;;10.00;4.93;;;22.50;99.90;;;;;;6213817;23;20349;-46
2023/05/28 11:28:49;;;;;;;8.88;5.00;;;;;;;;;;6187506;23;20128;-46
2023/05/28 11:31:15;;;;;;;11.02;5.47;;;;;;;;;;6214374;23;20072;-45
2023/05/28 11:33:41;;;;;;;10.82;4.68;;;23.10;99.90;;;;;;6213816;23;20141;-47
2023/05/28 11:36:06;;;;;;;9.25;4.47;;;22.70;99.90;;;;;;6213927;23;20434;-45
2023/05/28 11:38:32;;;;;;;9.63;4.80;;;22.70;99.90;;;;;;6214843;23;20016;-46
2023/05/28 11:41:02;;;;;;;10.23;4.57;;;22.70;99.90;;;;;;6217078;23;20036;-46
2023/05/28 11:43:28;;;;;;;8.50;4.53;;;22.60;99.90;;;;;;6216744;23;20429;-47
2023/05/28 11:45:58;;;;;;;8.73;4.28;;;;;;;;;;6215863;23;20013;-44
2023/05/28 11:48:24;;;;;;;9.10;4.70;;;23.10;99.90;;;;;;6216302;23;20028;-48
2023/05/28 11:50:56;;;;;;;8.13;5.13;;;22.90;99.90;;;;;;6189675;23;20362;-46
2023/05/28 11:53:22;;;;;;;9.55;4.55;;;;;;;;;;6215942;23;20013;-47
2023/05/28 11:55:49;;;;;;;11.45;5.32;;;;;;;;;;6216109;23;20016;-45
2023/05/28 11:58:15;;;;;;;10.45;4.72;;;23.00;95.70;;;;;;6216236;23;20013;-45
2023/05/28 12:00:40;;;;;;;9.73;5.07;;;22.80;95.10;;;;;;6215813;23;20070;-45
2023/05/28 12:03:10;;;;;;;8.18;5.10;;;22.70;95.30;;;;;;6216228;23;20395;-45
2023/05/28 12:05:40;;;;;;;9.23;4.90;;;22.80;95.40;;;;;;6215097;23;20471;-45
2023/05/28 12:08:06;;;;;;;9.55;5.00;;;22.70;94.90;;;;;;6188702;23;20027;-46
2023/05/28 12:10:31;;;;;;;6.63;4.35;;;22.70;94.00;;;;;;6215599;23;20733;-45
2023/05/28 12:12:57;;;;;;;9.02;4.18;;;22.90;94.10;;;;;;6191732;23;20048;-46
2023/05/28 12:15:27;;;;;;;7.88;5.00;;;22.80;93.70;;;;;;6215718;23;20020;-46
2023/05/28 12:18:02;;;;;;;8.38;5.07;;;22.90;93.80;;;;;;6214158;23;20293;-44
2023/05/28 12:20:34;;;;;;;6.90;4.03;;;22.90;94.10;;;;;;6215849;23;20445;-45
2023/05/28 12:23:06;;;;;;;9.20;4.80;;;22.70;92.80;;;;;;6213678;23;20345;-44
2023/05/28 12:25:51;;;;;;;5.95;3.53;;;22.80;93.00;;;;;;6215797;23;20324;-44
2023/05/28 12:28:21;;;;;;;7.38;4.57;;;22.70;92.40;;;;;;6214628;23;20051;-44
2023/05/28 12:30:52;;;;;;;7.22;4.60;;;22.90;92.50;;;;;;6215013;23;20472;-45
2023/05/28 12:33:20;;;;;;;6.68;4.43;;;23.00;92.20;;;;;;6214869;23;20470;-47
2023/05/28 12:35:45;;;;;;;9.40;4.57;;;23.20;91.70;;;;;;6215264;23;20026;-44
2023/05/28 12:38:12;;;;;;;7.40;4.25;;;23.10;91.10;;;;;;6215387;23;20397;-45
2023/05/28 12:40:38;;;;;;;7.23;4.00;;;23.00;90.10;;;;;;6215322;23;20044;-46
2023/05/28 12:43:03;;;;;;;8.95;4.45;;;23.10;90.70;;;;;;6216922;23;20016;-49